Flight Track Log - Related Links

Times and Time Zones

All times are in EDT time to prevent confusion due to time zone crossing. See the N242SR flight status page for this flight to view local times or setup timezone preferences in your user account.


Time Position Orientation Groundspeed Altitude Reporting Facility
EDT Latitude Longitude Course Direction KTS MPH feet Rate Location/Type
Thu 10:43:48 AM 42.4833 -71.2833 36° Northeast 138 159 900  Level KA90
Thu 10:44:24 AM 42.5000 -71.2667 36° Northeast 113 130 1,500 800 Climbing KA90
Thu 10:45:18 AM 42.5333 -71.2667 360° North 147 169 2,100 474 Climbing KA90
Thu 10:46:18 AM 42.5333 -71.3167 270° West 173 199 2,400 650 Climbing KA90
Thu 10:47:18 AM 42.5000 -71.3500 216° Southwest 146 168 3,400 850 Climbing KA90
Thu 10:48:18 AM 42.4667 -71.3833 216° Southwest 136 157 4,100 700 Climbing KA90
Thu 10:49:18 AM 42.4333 -71.4167 216° Southwest 147 169 4,800 800 Climbing KA90
Thu 10:50:18 AM 42.4000 -71.4500 216° Southwest 123 142 5,700 700 Climbing KA90
Thu 10:51:18 AM 42.3833 -71.4667 216° Southwest 129 148 6,200 200 Climbing KA90
Thu 10:52:18 AM 42.3500 -71.5000 216° Southwest 157 181 6,100 -101 Descending KA90
Thu 10:53:17 AM 42.3031 -71.5419 213° Southwest 158 182 6,000 -53 Descending Boston Center
Thu 10:54:11 AM 42.2700 -71.5703 212° Southwest 153 176 6,000  Level Boston Center
Thu 10:55:12 AM 42.2347 -71.6017 213° Southwest 153 176 6,000 48 Level Boston Center
Thu 10:56:15 AM 42.1975 -71.6331 212° Southwest 153 176 6,100 48 Climbing Boston Center
Thu 10:57:16 AM 42.1853 -71.6892 254° West 158 182 6,100  Level Boston Center
Thu 10:58:16 AM 42.1731 -71.7425 253° West 154 177 6,100 -99 Level Boston Center
Thu 10:59:17 AM 42.1378 -71.7711 211° Southwest 158 182 5,900 -99 Descending Boston Center
Thu 11:00:17 AM 42.0942 -71.7825 191° South 159 183 5,900 52 Level Boston Center
Thu 11:01:12 AM 42.0589 -71.7997 200° South 151 174 6,000 55 Climbing Boston Center
Thu 11:02:07 AM 42.0214 -71.8142 196° South 153 176 6,000 49 Level Boston Center
Thu 11:03:14 AM 41.9756 -71.8314 196° South 154 177 6,100  Climbing Boston Center
Thu 11:04:21 AM 41.9300 -71.8514 198° South 155 178 6,000 -49 Descending Boston Center
Thu 11:05:16 AM 41.8925 -71.8656 196° South 154 177 6,000  Level Boston Center
Thu 11:06:11 AM 41.8592 -71.8797 198° South 152 175 6,000  Level Boston Center
Thu 11:07:12 AM 41.8133 -71.8969 196° South 157 181 6,000  Level Boston Center
Thu 11:08:12 AM 41.7697 -71.9139 196° South 154 177 6,000 50 Level Boston Center
Thu 11:09:13 AM 41.7281 -71.9339 200° South 154 177 6,100  Climbing Boston Center
Thu 11:10:14 AM 41.6886 -71.9481 195° South 153 176 6,000  Descending Boston Center
Thu 11:11:15 AM 41.6469 -71.9622 194° South 154 177 6,100  Climbing Boston Center
Thu 11:12:13 AM 41.6056 -71.9792 197° South 154 177 6,000 -46 Descending Boston Center
Thu 11:13:26 AM 41.5533 -72.0017 198° South 154 177 6,000  Level Boston Center
Thu 11:14:27 AM 41.5117 -72.0133 192° South 158 182 6,000  Level Boston Center
Thu 11:15:34 AM 41.4639 -72.0219 188° South 156 180 6,000  Level Boston Center
Thu 11:16:35 AM 41.4203 -72.0331 191° South 154 177 6,000  Level Boston Center
Thu 11:17:35 AM 41.3786 -72.0417 189° South 156 180 6,000  Level Boston Center
Thu 11:19:50 AM 41.2833 -72.0833 198° South 157 181 6,000 32 Level New York TRACON
Thu 11:20:44 AM 41.2500 -72.1000 201° Southwest 153 176 6,100 53 Climbing New York TRACON
Thu 11:21:44 AM 41.2167 -72.1333 217° Southwest 156 180 6,100  Level New York TRACON
Thu 11:22:50 AM 41.1667 -72.1500 194° South 155 178 6,100  Level New York TRACON
Thu 11:23:44 AM 41.1333 -72.1833 217° Southwest 154 177 6,100  Level New York TRACON
Thu 11:24:44 AM 41.1000 -72.2000 201° Southwest 155 178 6,100  Level New York TRACON
Thu 11:25:50 AM 41.0500 -72.2333 207° Southwest 162 186 6,100  Level New York TRACON
Thu 11:26:50 AM 41.0167 -72.2500 201° Southwest 157 181 6,100  Level New York TRACON
Thu 11:27:44 AM 40.9833 -72.2833 217° Southwest 158 182 6,100  Level New York TRACON
Thu 11:28:50 AM 40.9333 -72.3000 194° South 152 175 6,100  Level New York TRACON
Thu 11:29:44 AM 40.9000 -72.3333 217° Southwest 155 178 6,100  Level New York TRACON
Thu 11:30:50 AM 40.8667 -72.3667 217° Southwest 151 174 6,100  Level New York TRACON
Thu 11:31:50 AM 40.8333 -72.4167 229° Southwest 152 175 6,100  Level New York TRACON
Thu 11:32:50 AM 40.8167 -72.4500 237° Southwest 155 178 6,100  Level New York TRACON
Thu 11:33:50 AM 40.7833 -72.4833 217° Southwest 154 177 6,100  Level New York TRACON
Thu 11:34:50 AM 40.7500 -72.5333 229° Southwest 151 174 6,100  Level New York TRACON
Thu 11:35:50 AM 40.7167 -72.5667 217° Southwest 152 175 6,100  Level New York TRACON
Thu 11:36:50 AM 40.6833 -72.6000 217° Southwest 154 177 6,100  Level New York TRACON
Thu 11:37:50 AM 40.6500 -72.6333 217° Southwest 155 178 6,100  Level New York TRACON
Thu 11:38:50 AM 40.6167 -72.6833 229° Southwest 156 180 6,100  Level New York TRACON
Thu 11:39:45 AM 40.5939 -72.7117 223° Southwest 152 175 6,100  Level New York Center
Thu 11:40:47 AM 40.5642 -72.7492 224° Southwest 157 181 6,100  Level New York Center
Thu 11:41:46 AM 40.5278 -72.7944 223° Southwest 157 181 6,100  Level New York Center
Thu 11:42:47 AM 40.5022 -72.8264 224° Southwest 157 181 6,100  Level New York Center
Thu 11:43:48 AM 40.4681 -72.8689 223° Southwest 163 188 6,100  Level New York Center
Thu 11:44:47 AM 40.4406 -72.9008 221° Southwest 158 182 6,100  Level New York Center
Thu 11:45:47 AM 40.4044 -72.9433 222° Southwest 158 182 6,100  Level New York Center
Thu 11:46:48 AM 40.3767 -72.9778 223° Southwest 158 182 6,100  Level New York Center
Thu 11:47:48 AM 40.3425 -73.0203 223° Southwest 158 182 6,100  Level New York Center
Thu 11:48:46 AM 40.3147 -73.0522 221° Southwest 158 182 6,100  Level New York Center
Thu 11:49:46 AM 40.2806 -73.0944 223° Southwest 153 176 6,100  Level New York Center
Thu 11:50:47 AM 40.2528 -73.1289 223° Southwest 153 176 6,100  Level New York Center
Thu 11:51:47 AM 40.2167 -73.1683 220° Southwest 153 176 6,100  Level New York Center
Thu 11:52:47 AM 40.1844 -73.2053 221° Southwest 153 176 6,100  Level New York Center
Thu 11:53:47 AM 40.1544 -73.2450 225° Southwest 153 176 6,100  Level New York Center
Thu 11:54:48 AM 40.1225 -73.2819 221° Southwest 153 176 6,100  Level New York Center
Thu 11:55:46 AM 40.0906 -73.3186 221° Southwest 158 182 6,100  Level New York Center
Thu 11:56:47 AM 40.0603 -73.3583 225° Southwest 158 182 6,100  Level New York Center
Thu 11:57:46 AM 40.0283 -73.3922 219° Southwest 158 182 6,100  Level New York Center
Thu 11:58:47 AM 39.9961 -73.4344 225° Southwest 163 188 6,100  Level New York Center
Thu 11:59:48 AM 39.9661 -73.4683 221° Southwest 163 188 6,100  Level New York Center
Thu 12:00:49 PM 39.9319 -73.5050 219° Southwest 163 188 6,100  Level New York Center
Thu 12:01:46 PM 39.9019 -73.5417 223° Southwest 163 188 6,100  Level New York Center
Thu 12:02:47 PM 39.8739 -73.5867 231° Southwest 163 188 6,100  Level New York Center
Thu 12:03:45 PM 39.8497 -73.6342 236° Southwest 168 193 6,100  Level New York Center
Thu 12:04:46 PM 39.8317 -73.6847 245° Southwest 163 188 6,100  Level New York Center
Thu 12:05:47 PM 39.8117 -73.7381 244° Southwest 163 188 6,100  Level New York Center
Thu 12:06:46 PM 39.7958 -73.7914 249° West 158 182 6,100  Level New York Center
Thu 12:07:47 PM 39.7714 -73.8417 238° Southwest 152 175 6,100  Level New York Center
Thu 12:08:48 PM 39.7514 -73.8894 241° Southwest 157 181 6,100 -20 Level New York Center
Thu 12:10:00 PM 39.7228 -73.9430 235° Southwest  Level FlightAware Approximate
Thu 12:12:47 PM 39.6664 -74.0872 241° Southwest 156 180 6,000  Level Washington Center
Thu 12:14:00 PM 39.6659 -74.1533 269° West  Level Estimated
Thu 12:16:48 PM 39.5814 -74.2856 269° West 156 180 6,000  Level Washington Center
Thu 12:17:00 PM 39.5774 -74.2738 241° Southwest  Level FlightAware Approximate
Thu 12:18:00 PM 39.5569 -74.3211 241° Southwest  Level FlightAware Approximate
Thu 12:18:00 PM 39.5828 -74.3507 272° West  Level Estimated
Thu 12:20:48 PM 39.4978 -74.4808 271° West 154 177 6,000  Level Washington Center
Thu 12:21:00 PM 39.6622 -74.5337 269° West  Level Estimated
Thu 12:22:00 PM 39.6616 -74.5880 269° West  Level Estimated
Thu 12:22:00 PM 39.4684 -74.5336 234° Southwest  Level FlightAware Approximate
Thu 12:24:48 PM 39.4289 -74.6861 254° West 147 169 6,000  Level Washington Center
Thu 12:25:00 PM 39.5901 -74.7305 272° West  Level Estimated
Thu 12:26:00 PM 39.5911 -74.7847 271° West  Level Estimated
Thu 12:26:00 PM 39.4345 -74.7507 276° West  Level Estimated
Thu 12:28:49 PM 39.3803 -74.8933 276° West 152 175 6,000  Level Washington Center
Thu 12:29:00 PM 39.3761 -74.8918 254° West  Level FlightAware Approximate
Thu 12:30:00 PM 39.3642 -74.9437 254° West  Level FlightAware Approximate
Thu 12:30:00 PM 39.3877 -74.9566 279° West  Level Estimated
Thu 12:33:00 PM 39.4666 -75.1276 276° West  Level Estimated
Thu 12:34:00 PM 39.4711 -75.1815 276° West  Level Estimated
Thu 12:37:00 PM 39.4308 -75.3315 279° West  Level Estimated
Thu 12:38:00 PM 39.4369 -75.3851 278° West  Level Estimated
Thu 12:39:00 PM 39.4429 -75.4387 278° West  Level Estimated
Thu 12:40:00 PM 39.4489 -75.4923 278° West  Level Estimated
Thu 12:41:00 PM 39.4549 -75.5459 278° West  Level Estimated
Thu 12:42:00 PM 39.4608 -75.5995 278° West  Level Estimated
Thu 12:43:00 PM 39.4668 -75.6531 278° West  Level Estimated
Thu 12:44:00 PM 39.4726 -75.7061 278° West  Level Estimated
Thu 12:44:03 PM 39.2167 -75.7000 278° West 152 175 6,000  Level Potomac TRACON
Thu 12:45:00 PM 39.4784 -75.7590 278° West  Level Estimated
Thu 12:45:03 PM 39.2000 -75.7500 247° West 149 171 6,000  Level Potomac TRACON
Thu 12:46:00 PM 39.4842 -75.8120 278° West  Level Estimated
Thu 12:46:03 PM 39.2000 -75.8000 270° West 147 169 6,000  Level Potomac TRACON
Thu 12:47:00 PM 39.4900 -75.8650 278° West  Level Estimated
Thu 12:47:03 PM 39.2000 -75.8667 270° West 148 170 6,000  Level Potomac TRACON
Thu 12:48:00 PM 39.4957 -75.9180 278° West  Level Estimated
Thu 12:48:03 PM 39.1833 -75.9167 247° West 147 169 6,000  Level Potomac TRACON
Thu 12:49:00 PM 39.5015 -75.9710 278° West  Level Estimated
Thu 12:49:03 PM 39.1833 -75.9667 270° West 148 170 6,000  Level Potomac TRACON
Thu 12:50:04 PM 39.1667 -76.0167 247° West 143 165 6,000  Level Potomac TRACON
Thu 12:51:04 PM 39.1833 -76.0667 293° West 146 168 6,000  Level Potomac TRACON
Thu 12:52:04 PM 39.1833 -76.1167 270° West 145 167 6,000  Level Potomac TRACON
Thu 12:53:04 PM 39.1833 -76.1833 270° West 144 166 6,000  Level Potomac TRACON
Thu 12:54:04 PM 39.1833 -76.2333 270° West 145 167 6,000  Level Potomac TRACON
Thu 12:55:04 PM 39.1833 -76.2833 270° West 160 184 6,000  Level Potomac TRACON
Thu 12:56:05 PM 39.2167 -76.3167 322° Northwest 169 194 6,000  Level Potomac TRACON
Thu 12:57:05 PM 39.2500 -76.3667 311° West 170 196 6,000  Level Potomac TRACON
Thu 12:58:05 PM 39.2833 -76.4000 322° Northwest 169 194 6,000  Level Potomac TRACON
Thu 12:59:05 PM 39.3333 -76.4500 322° Northwest 172 198 6,000  Level Potomac TRACON
Thu 01:00:05 PM 39.3667 -76.4833 322° Northwest 171 197 6,000  Level Potomac TRACON
Thu 01:01:05 PM 39.4000 -76.5333 311° West 173 199 6,000  Level Potomac TRACON
Thu 01:02:05 PM 39.4333 -76.5667 322° Northwest 175 201 6,000  Level Potomac TRACON
Thu 01:03:05 PM 39.4667 -76.6167 311° West 177 204 6,000 -50 Level Potomac TRACON
Thu 01:04:05 PM 39.5000 -76.6667 311° West 177 204 5,900 -350 Descending Potomac TRACON
Thu 01:05:05 PM 39.5333 -76.7000 322° Northwest 188 216 5,300 -600 Descending Potomac TRACON
Thu 01:06:05 PM 39.5833 -76.7500 322° Northwest 188 216 4,700 -600 Descending Potomac TRACON
Thu 01:07:05 PM 39.6167 -76.8000 311° West 190 219 4,100 -350 Descending Potomac TRACON
Thu 01:08:05 PM 39.6500 -76.8500 311° West 179 206 4,000 -50 Descending Potomac TRACON
Thu 01:09:05 PM 39.6833 -76.8833 322° Northwest 169 194 4,000 -150 Level Potomac TRACON
Thu 01:10:05 PM 39.7167 -76.9333 311° West 175 201 3,700 -400 Descending Potomac TRACON
Thu 01:11:05 PM 39.7500 -76.9667 322° Northwest 179 206 3,200 -500 Descending Potomac TRACON

Login

Don't have an account? Register now (free) for customized features, flight alerts, and more!